createdAt,value
2019-03-15T00:02:00.118Z,100.00
2019-03-15T00:04:28.386Z,100.00
2019-03-15T00:06:56.639Z,100.00
2019-03-15T00:09:24.901Z,100.00
2019-03-15T00:11:53.151Z,100.00
2019-03-15T00:14:21.407Z,100.00
2019-03-15T00:16:49.670Z,100.00
2019-03-15T00:19:17.925Z,100.00
2019-03-15T00:21:46.175Z,100.00
2019-03-15T00:24:14.431Z,100.00
2019-03-15T00:26:42.681Z,100.00
2019-03-15T00:29:10.935Z,100.00
2019-03-15T00:31:39.184Z,100.00
2019-03-15T00:34:07.443Z,100.00
2019-03-15T00:36:35.698Z,100.00
2019-03-15T00:42:23.863Z,100.00
2019-03-15T00:44:52.124Z,100.00
2019-03-15T00:47:20.394Z,100.00
2019-03-15T00:49:48.709Z,100.00
2019-03-15T00:52:16.967Z,100.00
2019-03-15T00:54:45.222Z,100.00
2019-03-15T00:57:13.493Z,100.00
2019-03-15T00:59:41.745Z,100.00
2019-03-15T01:02:11.438Z,100.00
2019-03-15T01:04:40.420Z,100.00
2019-03-15T01:07:08.672Z,100.00
2019-03-15T01:09:36.961Z,100.00
2019-03-15T01:12:05.213Z,100.00
2019-03-15T01:14:33.492Z,100.00
2019-03-15T01:17:01.741Z,100.00
2019-03-15T01:19:29.995Z,100.00
2019-03-15T01:21:58.247Z,100.00
2019-03-15T01:24:26.509Z,100.00
2019-03-15T01:26:54.782Z,100.00
2019-03-15T01:29:23.030Z,100.00
2019-03-15T01:31:51.304Z,100.00
2019-03-15T01:34:19.566Z,100.00
2019-03-15T01:36:47.823Z,100.00
2019-03-15T01:39:16.064Z,100.00
2019-03-15T01:41:44.329Z,100.00
2019-03-15T01:44:12.572Z,100.00
2019-03-15T01:46:40.838Z,100.00
2019-03-15T01:49:09.111Z,100.00
2019-03-15T01:51:37.340Z,100.00
2019-03-15T01:54:05.587Z,100.00
2019-03-15T01:56:33.856Z,100.00
2019-03-15T01:59:02.113Z,100.00
2019-03-15T02:01:30.893Z,100.00
2019-03-15T02:04:00.362Z,100.00
2019-03-15T02:06:28.629Z,100.00
2019-03-15T02:08:56.874Z,100.00
2019-03-15T02:11:25.139Z,100.00
2019-03-15T02:13:53.390Z,99.81
2019-03-15T02:16:21.646Z,99.08
2019-03-15T02:18:49.921Z,98.78
2019-03-15T02:21:18.542Z,97.67
2019-03-15T02:23:48.493Z,96.74
2019-03-15T02:26:30.678Z,97.02
2019-03-15T02:28:58.915Z,97.02
2019-03-15T02:31:27.177Z,97.26
2019-03-15T02:33:55.445Z,97.27
2019-03-15T02:36:23.692Z,97.39
2019-03-15T02:38:51.929Z,97.52
2019-03-15T02:41:20.212Z,97.05
2019-03-15T02:43:48.468Z,97.59
2019-03-15T02:46:16.726Z,97.67
2019-03-15T02:48:44.974Z,97.92
2019-03-15T02:51:13.231Z,98.19
2019-03-15T02:53:41.499Z,98.03
2019-03-15T02:56:09.759Z,98.76
2019-03-15T02:58:38.002Z,99.15
2019-03-15T03:01:07.637Z,99.74
2019-03-15T03:03:36.219Z,100.00
2019-03-15T03:06:04.471Z,100.00
2019-03-15T03:08:32.721Z,100.00
2019-03-15T03:11:00.987Z,100.00
2019-03-15T03:13:29.249Z,100.00
2019-03-15T03:15:57.519Z,100.00
2019-03-15T03:18:25.803Z,100.00
2019-03-15T03:20:54.033Z,100.00
2019-03-15T03:23:22.273Z,100.00
2019-03-15T03:25:50.537Z,100.00
2019-03-15T03:28:18.781Z,100.00
2019-03-15T03:30:47.289Z,100.00
2019-03-15T03:33:17.041Z,100.00
2019-03-15T03:35:45.302Z,100.00
2019-03-15T03:38:13.559Z,100.00
2019-03-15T03:40:41.814Z,100.00
2019-03-15T03:43:10.354Z,100.00
2019-03-15T03:45:38.632Z,100.00
2019-03-15T03:48:06.885Z,100.00
2019-03-15T03:50:35.145Z,100.00
2019-03-15T03:53:03.411Z,100.00
2019-03-15T03:55:31.676Z,100.00
2019-03-15T03:57:59.937Z,100.00
2019-03-15T04:00:28.358Z,100.00
2019-03-15T04:02:56.632Z,100.00
2019-03-15T04:05:25.198Z,100.00
2019-03-15T04:07:53.461Z,100.00
2019-03-15T04:10:21.717Z,100.00
2019-03-15T04:12:49.977Z,100.00
2019-03-15T04:15:18.251Z,100.00
2019-03-15T04:17:46.567Z,100.00
2019-03-15T04:20:14.763Z,100.00
2019-03-15T04:22:43.027Z,100.00
2019-03-15T04:25:11.350Z,100.00
2019-03-15T04:27:39.614Z,100.00
2019-03-15T04:30:39.183Z,100.00
2019-03-15T04:33:07.429Z,100.00
2019-03-15T04:35:35.699Z,100.00
2019-03-15T04:38:03.962Z,100.00
2019-03-15T04:40:32.227Z,100.00
2019-03-15T04:43:00.498Z,100.00
2019-03-15T04:45:28.743Z,100.00
2019-03-15T04:47:57.001Z,100.00
2019-03-15T04:50:25.287Z,100.00
2019-03-15T04:52:53.614Z,100.00
2019-03-15T04:55:21.884Z,100.00
2019-03-15T04:57:50.149Z,100.00
2019-03-15T05:00:18.397Z,100.00
2019-03-15T05:02:46.682Z,100.00
2019-03-15T05:05:14.952Z,100.00
2019-03-15T05:07:43.210Z,100.00
2019-03-15T05:10:11.471Z,100.00
2019-03-15T05:12:39.757Z,100.00
2019-03-15T05:15:39.928Z,100.00
2019-03-15T05:18:08.200Z,100.00
2019-03-15T05:20:36.462Z,100.00
2019-03-15T05:23:04.726Z,100.00
2019-03-15T05:25:33.003Z,100.00
2019-03-15T05:28:01.264Z,100.00
2019-03-15T05:30:29.535Z,100.00
2019-03-15T05:32:57.799Z,100.00
2019-03-15T05:35:26.090Z,100.00
2019-03-15T05:37:54.345Z,100.00
2019-03-15T05:40:22.629Z,100.00
2019-03-15T05:42:50.902Z,100.00
2019-03-15T05:45:19.152Z,100.00
2019-03-15T05:47:47.432Z,100.00
2019-03-15T05:50:15.971Z,100.00
2019-03-15T05:52:44.213Z,100.00
2019-03-15T05:55:43.721Z,100.00
2019-03-15T05:58:11.991Z,100.00
2019-03-15T06:00:40.300Z,100.00
2019-03-15T06:03:08.584Z,100.00
2019-03-15T06:05:36.841Z,100.00
2019-03-15T06:08:05.183Z,100.00
2019-03-15T06:10:33.448Z,100.00
2019-03-15T06:13:01.700Z,100.00
2019-03-15T06:15:29.982Z,100.00
2019-03-15T06:17:58.255Z,100.00
2019-03-15T06:20:26.527Z,100.00
2019-03-15T06:22:54.813Z,100.00
2019-03-15T06:25:23.081Z,100.00
2019-03-15T06:27:51.408Z,100.00
2019-03-15T06:30:19.632Z,100.00
2019-03-15T06:32:47.998Z,100.00
2019-03-15T06:35:16.259Z,100.00
2019-03-15T06:37:44.536Z,100.00
2019-03-15T06:40:13.798Z,100.00
2019-03-15T06:42:42.853Z,100.00
2019-03-15T06:45:51.143Z,100.00
2019-03-15T06:48:19.406Z,100.00
2019-03-15T06:50:47.677Z,100.00
2019-03-15T06:53:15.946Z,100.00
2019-03-15T06:55:44.214Z,100.00
2019-03-15T06:58:12.462Z,100.00
2019-03-15T07:00:40.727Z,100.00
2019-03-15T07:03:09.008Z,100.00
2019-03-15T07:05:37.285Z,100.00
2019-03-15T07:08:05.562Z,100.00
2019-03-15T07:10:33.838Z,100.00
2019-03-15T07:13:02.095Z,100.00
2019-03-15T07:15:30.350Z,100.00
2019-03-15T07:17:58.636Z,100.00
2019-03-15T07:20:26.902Z,100.00
2019-03-15T07:22:55.176Z,100.00
2019-03-15T07:25:34.673Z,100.00
2019-03-15T07:28:02.947Z,100.00
2019-03-15T07:30:31.179Z,100.00
2019-03-15T07:32:59.441Z,100.00
2019-03-15T07:35:27.706Z,100.00
2019-03-15T07:37:55.962Z,100.00
2019-03-15T07:40:24.231Z,100.00
2019-03-15T07:42:52.489Z,100.00
2019-03-15T07:45:20.760Z,100.00
2019-03-15T07:47:49.013Z,100.00
2019-03-15T07:50:17.286Z,100.00
2019-03-15T07:52:45.560Z,100.00
2019-03-15T07:55:13.829Z,100.00
2019-03-15T07:57:42.102Z,100.00
2019-03-15T08:00:41.931Z,100.00
2019-03-15T08:03:10.216Z,100.00
2019-03-15T08:05:38.467Z,100.00
2019-03-15T08:08:06.752Z,100.00
2019-03-15T08:10:35.019Z,100.00
2019-03-15T08:13:03.277Z,100.00
2019-03-15T08:15:31.546Z,100.00
2019-03-15T08:17:59.822Z,100.00
2019-03-15T08:20:28.062Z,100.00
2019-03-15T08:22:56.413Z,100.00
2019-03-15T08:25:24.654Z,100.00
2019-03-15T08:27:52.905Z,100.00
2019-03-15T08:30:21.342Z,100.00
2019-03-15T08:32:49.598Z,100.00
2019-03-15T08:35:37.245Z,100.00
2019-03-15T08:38:05.605Z,100.00
2019-03-15T08:40:33.861Z,100.00
2019-03-15T08:43:14.954Z,100.00
2019-03-15T08:45:43.212Z,100.00
2019-03-15T08:48:11.492Z,100.00
2019-03-15T08:50:39.772Z,100.00
2019-03-15T08:53:08.060Z,100.00
2019-03-15T08:55:39.611Z,100.00
2019-03-15T08:58:13.831Z,100.00
2019-03-15T09:00:36.321Z,100.00
2019-03-15T09:03:04.594Z,100.00
2019-03-15T09:05:32.869Z,100.00
2019-03-15T09:08:01.153Z,100.00
2019-03-15T09:10:29.427Z,100.00
2019-03-15T09:12:57.759Z,100.00
2019-03-15T09:15:26.014Z,100.00
2019-03-15T09:17:54.273Z,100.00
2019-03-15T09:20:22.543Z,100.00
2019-03-15T09:22:51.464Z,100.00
2019-03-15T09:25:20.900Z,100.00
2019-03-15T09:27:49.793Z,100.00
2019-03-15T09:30:49.232Z,100.00
2019-03-15T09:33:17.491Z,100.00
2019-03-15T09:35:45.753Z,100.00
2019-03-15T09:38:14.015Z,100.00
2019-03-15T09:40:42.269Z,100.00
2019-03-15T09:43:10.539Z,100.00
2019-03-15T09:45:38.821Z,100.00
2019-03-15T09:48:07.098Z,100.00
2019-03-15T09:50:50.168Z,100.00
2019-03-15T09:53:06.133Z,100.00
2019-03-15T09:55:35.322Z,100.00
2019-03-15T09:58:03.597Z,100.00
2019-03-15T10:00:31.871Z,100.00
2019-03-15T10:03:00.151Z,100.00
2019-03-15T10:05:28.402Z,99.01
2019-03-15T10:07:56.673Z,98.81
2019-03-15T10:10:24.961Z,97.71
2019-03-15T10:13:05.084Z,96.41
2019-03-15T10:15:26.169Z,96.68
2019-03-15T10:17:53.189Z,95.90
2019-03-15T10:20:21.460Z,95.41
2019-03-15T10:23:04.715Z,96.33
2019-03-15T10:25:19.791Z,95.68
2019-03-15T10:27:48.054Z,95.98
2019-03-15T10:30:48.217Z,97.44
2019-03-15T10:33:16.445Z,97.47
2019-03-15T10:35:44.705Z,98.88
2019-03-15T10:38:12.972Z,98.93
2019-03-15T10:40:41.224Z,99.33
2019-03-15T10:43:09.484Z,98.49
2019-03-15T10:45:37.739Z,99.07
2019-03-15T10:48:08.075Z,100.00
2019-03-15T10:50:35.980Z,100.00
2019-03-15T10:53:04.247Z,100.00
2019-03-15T10:55:32.511Z,100.00
2019-03-15T10:58:00.760Z,100.00
2019-03-15T11:00:29.207Z,100.00
2019-03-15T11:02:57.462Z,100.00
2019-03-15T11:05:25.717Z,100.00
2019-03-15T11:07:53.976Z,100.00
2019-03-15T11:10:22.230Z,100.00
2019-03-15T11:12:50.729Z,100.00
2019-03-15T11:15:18.992Z,100.00
2019-03-15T11:17:47.261Z,100.00
2019-03-15T11:20:15.515Z,100.00
2019-03-15T11:22:43.789Z,100.00
2019-03-15T11:25:43.187Z,100.00
2019-03-15T11:28:11.446Z,100.00
2019-03-15T11:30:39.704Z,100.00
2019-03-15T11:33:08.048Z,100.00
2019-03-15T11:35:36.312Z,100.00
2019-03-15T11:38:04.592Z,100.00
2019-03-15T11:40:32.867Z,100.00
2019-03-15T11:43:01.139Z,100.00
2019-03-15T11:45:29.441Z,100.00
2019-03-15T11:48:03.848Z,100.00
2019-03-15T11:50:28.536Z,100.00
2019-03-15T11:52:56.806Z,100.00
2019-03-15T11:55:25.089Z,100.00
2019-03-15T11:57:53.375Z,100.00
2019-03-15T12:00:21.640Z,100.00
2019-03-15T12:02:49.907Z,100.00
2019-03-15T12:05:18.254Z,100.00
2019-03-15T12:07:46.536Z,100.00
2019-03-15T12:10:34.143Z,100.00
2019-03-15T12:13:02.392Z,100.00
2019-03-15T12:15:30.670Z,100.00
2019-03-15T12:17:58.937Z,100.00
2019-03-15T12:20:27.203Z,100.00
2019-03-15T12:22:55.462Z,100.00
2019-03-15T12:25:23.730Z,100.00
2019-03-15T12:27:52.010Z,100.00
2019-03-15T12:30:20.282Z,100.00
2019-03-15T12:32:48.558Z,100.00
2019-03-15T12:35:16.982Z,100.00
2019-03-15T12:37:45.255Z,100.00
2019-03-15T12:40:32.872Z,100.00
2019-03-15T12:43:01.131Z,100.00
2019-03-15T12:45:29.394Z,100.00
2019-03-15T12:47:57.653Z,100.00
2019-03-15T12:50:25.903Z,100.00
2019-03-15T12:52:54.175Z,100.00
2019-03-15T12:55:22.427Z,100.00
2019-03-15T12:57:50.684Z,100.00
2019-03-15T13:00:50.370Z,100.00
2019-03-15T13:03:18.619Z,100.00
2019-03-15T13:05:46.880Z,100.00
2019-03-15T13:08:15.139Z,100.00
2019-03-15T13:10:43.397Z,100.00
2019-03-15T13:13:11.649Z,100.00
2019-03-15T13:15:39.915Z,100.00
2019-03-15T13:18:08.189Z,100.00
2019-03-15T13:20:36.443Z,100.00
2019-03-15T13:23:04.700Z,100.00
2019-03-15T13:25:32.969Z,100.00
2019-03-15T13:28:01.229Z,100.00
2019-03-15T13:30:29.493Z,100.00
2019-03-15T13:32:57.753Z,100.00
2019-03-15T13:35:26.006Z,100.00
2019-03-15T13:37:54.271Z,100.00
2019-03-15T13:40:22.534Z,100.00
2019-03-15T13:42:50.862Z,100.00
2019-03-15T13:45:19.058Z,100.00
2019-03-15T13:47:47.301Z,100.00
2019-03-15T13:50:34.894Z,100.00
2019-03-15T13:53:03.140Z,100.00
2019-03-15T13:55:31.420Z,100.00
2019-03-15T13:57:59.661Z,100.00
2019-03-15T14:00:27.926Z,100.00
2019-03-15T14:02:56.196Z,100.00
2019-03-15T14:05:24.458Z,100.00
2019-03-15T14:08:12.333Z,100.00
2019-03-15T14:10:49.181Z,100.00
2019-03-15T14:13:12.265Z,100.00
2019-03-15T14:15:40.611Z,100.00
2019-03-15T14:18:08.871Z,100.00
2019-03-15T14:20:37.120Z,100.00
2019-03-15T14:23:05.366Z,98.47
2019-03-15T14:25:33.617Z,97.54
2019-03-15T14:28:01.881Z,95.20
2019-03-15T14:30:30.136Z,94.05
2019-03-15T14:32:58.382Z,93.74
2019-03-15T14:35:26.646Z,93.78
2019-03-15T14:37:54.890Z,91.59
2019-03-15T14:40:23.242Z,92.01
2019-03-15T14:42:51.497Z,91.83
2019-03-15T14:45:19.756Z,90.37
2019-03-15T14:48:00.630Z,91.36
2019-03-15T14:50:28.892Z,91.36
2019-03-15T14:52:57.185Z,90.25
2019-03-15T14:55:25.390Z,88.67
2019-03-15T14:57:53.792Z,88.29
2019-03-15T15:00:21.997Z,87.06
2019-03-15T15:02:50.262Z,85.45
2019-03-15T15:05:18.513Z,83.93
2019-03-15T15:07:46.763Z,85.11
2019-03-15T15:10:55.054Z,84.37
2019-03-15T15:13:23.329Z,84.73
2019-03-15T15:15:51.597Z,85.26
2019-03-15T15:18:19.844Z,85.53
2019-03-15T15:20:48.126Z,83.21
2019-03-15T15:23:16.440Z,82.46
2019-03-15T15:25:44.690Z,83.30
2019-03-15T15:28:12.962Z,83.08
2019-03-15T15:30:41.245Z,81.33
2019-03-15T15:33:09.541Z,80.57
2019-03-15T15:35:37.785Z,81.46
2019-03-15T15:38:06.051Z,81.71
2019-03-15T15:40:34.351Z,81.43
2019-03-15T15:43:02.620Z,81.82
2019-03-15T15:45:30.869Z,82.84
2019-03-15T15:47:59.151Z,82.78
2019-03-15T15:50:27.408Z,82.63
2019-03-15T15:52:55.679Z,81.54
2019-03-15T15:55:23.932Z,82.46
2019-03-15T15:57:52.183Z,80.55
2019-03-15T16:00:20.467Z,81.55
2019-03-15T16:02:48.718Z,80.68
2019-03-15T16:05:16.972Z,80.76
2019-03-15T16:07:45.222Z,82.74
2019-03-15T16:10:44.634Z,82.10
2019-03-15T16:13:17.416Z,81.26
2019-03-15T16:15:42.838Z,81.79
2019-03-15T16:18:11.094Z,80.66
2019-03-15T16:20:39.351Z,82.37
2019-03-15T16:23:07.610Z,82.69
2019-03-15T16:25:35.880Z,82.98
2019-03-15T16:28:04.139Z,84.00
2019-03-15T16:30:32.416Z,83.77
2019-03-15T16:33:00.676Z,82.49
2019-03-15T16:35:28.930Z,82.29
2019-03-15T16:37:57.193Z,82.47
2019-03-15T16:40:25.468Z,83.05
2019-03-15T16:42:53.767Z,83.35
2019-03-15T16:45:41.610Z,83.95
2019-03-15T16:48:09.872Z,83.59
2019-03-15T16:50:38.155Z,81.60
2019-03-15T16:53:06.403Z,81.63
2019-03-15T16:55:34.676Z,81.10
2019-03-15T16:58:02.916Z,81.04
2019-03-15T17:00:31.189Z,79.79
2019-03-15T17:02:59.479Z,79.33
2019-03-15T17:05:27.832Z,78.85
2019-03-15T17:07:56.062Z,79.17
2019-03-15T17:10:24.331Z,80.00
2019-03-15T17:12:55.573Z,79.67
2019-03-15T17:15:41.945Z,80.21
2019-03-15T17:18:10.200Z,80.62
2019-03-15T17:20:38.471Z,80.37
2019-03-15T17:23:06.747Z,80.71
2019-03-15T17:25:35.010Z,81.80
2019-03-15T17:28:03.271Z,82.83
2019-03-15T17:30:50.660Z,82.70
2019-03-15T17:33:18.949Z,82.44
2019-03-15T17:35:47.200Z,82.13
2019-03-15T17:38:15.462Z,84.46
2019-03-15T17:40:43.712Z,87.07
2019-03-15T17:43:11.975Z,85.79
2019-03-15T17:45:40.226Z,85.40
2019-03-15T17:48:08.495Z,86.93
2019-03-15T17:50:36.745Z,87.68
2019-03-15T17:53:05.002Z,85.71
2019-03-15T17:55:33.269Z,84.67
2019-03-15T17:58:01.533Z,83.56
2019-03-15T18:01:01.137Z,83.88
2019-03-15T18:03:29.406Z,83.39
2019-03-15T18:05:57.659Z,83.23
2019-03-15T18:08:25.911Z,83.92
2019-03-15T18:10:54.160Z,84.09
2019-03-15T18:13:22.416Z,83.87
2019-03-15T18:15:50.686Z,83.57
2019-03-15T18:18:18.960Z,83.27
2019-03-15T18:20:47.201Z,83.89
2019-03-15T18:23:15.465Z,83.95
2019-03-15T18:25:43.731Z,83.81
2019-03-15T18:28:11.991Z,83.33
2019-03-15T18:30:40.269Z,82.99
2019-03-15T18:33:08.533Z,83.28
2019-03-15T18:35:36.797Z,83.81
2019-03-15T18:38:05.069Z,84.13
2019-03-15T18:40:33.335Z,84.37
2019-03-15T18:43:01.592Z,84.06
2019-03-15T18:45:29.841Z,82.32
2019-03-15T18:47:58.109Z,82.30
2019-03-15T18:53:46.217Z,82.51
2019-03-15T18:56:14.492Z,82.83
2019-03-15T18:58:42.764Z,82.55
2019-03-15T19:01:11.043Z,82.80
2019-03-15T19:03:39.478Z,82.61
2019-03-15T19:06:07.752Z,83.16
2019-03-15T19:08:36.020Z,83.36
2019-03-15T19:11:04.281Z,82.79
2019-03-15T19:13:32.539Z,82.19
2019-03-15T19:16:00.792Z,81.65
2019-03-15T19:18:29.054Z,81.95
2019-03-15T19:20:57.361Z,82.53
2019-03-15T19:23:25.625Z,81.31
2019-03-15T19:25:53.897Z,80.95
2019-03-15T19:28:22.162Z,81.05
2019-03-15T19:30:50.434Z,81.42
2019-03-15T19:33:18.713Z,82.09
2019-03-15T19:35:47.029Z,83.02
2019-03-15T19:38:15.312Z,83.06
2019-03-15T19:40:43.623Z,83.21
2019-03-15T19:43:11.904Z,83.40
2019-03-15T19:45:40.221Z,85.66
2019-03-15T19:48:08.510Z,88.45
2019-03-15T19:50:36.818Z,88.38
2019-03-15T19:53:05.128Z,87.06
2019-03-15T19:55:33.445Z,85.69
2019-03-15T19:58:01.840Z,85.19
2019-03-15T20:00:30.134Z,84.10
2019-03-15T20:02:58.459Z,83.39
2019-03-15T20:05:26.774Z,83.12
2019-03-15T20:07:55.089Z,82.87
2019-03-15T20:10:23.411Z,83.17
2019-03-15T20:12:51.720Z,83.35
2019-03-15T20:15:20.029Z,83.13
2019-03-15T20:17:48.353Z,83.04
2019-03-15T20:23:38.893Z,83.85
2019-03-15T20:26:07.212Z,83.23
2019-03-15T20:28:35.609Z,83.51
2019-03-15T20:31:03.929Z,83.78
2019-03-15T20:33:32.234Z,83.51
2019-03-15T20:36:00.542Z,83.00
2019-03-15T20:41:49.419Z,83.71
2019-03-15T20:44:27.800Z,84.22
2019-03-15T20:46:47.770Z,84.37
2019-03-15T20:49:16.042Z,84.69
2019-03-15T20:51:44.353Z,85.21
2019-03-15T20:54:12.643Z,84.94
2019-03-15T20:56:40.958Z,84.78
2019-03-15T20:59:09.279Z,84.78
2019-03-15T21:01:37.894Z,84.76
2019-03-15T21:04:06.193Z,85.15
2019-03-15T21:06:34.447Z,85.08
2019-03-15T21:09:02.789Z,85.64
2019-03-15T21:11:31.076Z,85.32
2019-03-15T21:13:59.379Z,85.17
2019-03-15T21:16:27.638Z,85.15
2019-03-15T21:18:55.913Z,85.67
2019-03-15T21:21:24.198Z,85.51
2019-03-15T21:23:52.457Z,85.61
2019-03-15T21:26:20.722Z,85.51
2019-03-15T21:28:48.986Z,85.87
2019-03-15T21:31:17.254Z,86.26
2019-03-15T21:33:45.512Z,86.22
2019-03-15T21:36:13.777Z,86.23
2019-03-15T21:38:48.073Z,84.51
2019-03-15T21:41:12.019Z,83.95
2019-03-15T21:43:40.271Z,83.85
2019-03-15T21:46:08.555Z,84.46
2019-03-15T21:48:36.816Z,84.53
2019-03-15T21:51:05.097Z,84.53
2019-03-15T21:53:33.345Z,84.61
2019-03-15T21:56:01.606Z,84.18
2019-03-15T21:58:29.878Z,83.94
2019-03-15T22:01:02.580Z,83.45
2019-03-15T22:03:28.124Z,83.22
2019-03-15T22:09:15.288Z,84.22
2019-03-15T22:11:43.580Z,84.68
2019-03-15T22:14:11.834Z,84.63
2019-03-15T22:16:40.092Z,85.04
2019-03-15T22:19:08.356Z,85.51
2019-03-15T22:21:36.602Z,86.60
2019-03-15T22:26:53.821Z,87.11
2019-03-15T22:29:22.082Z,86.43
2019-03-15T22:31:50.345Z,86.12
2019-03-15T22:34:18.612Z,86.26
2019-03-15T22:36:46.881Z,85.61
2019-03-15T22:39:15.142Z,85.38
2019-03-15T22:41:43.486Z,85.63
2019-03-15T22:44:11.741Z,84.84
2019-03-15T22:49:48.070Z,84.71
2019-03-15T22:52:16.333Z,85.33
2019-03-15T22:54:44.603Z,84.92
2019-03-15T22:57:12.867Z,84.98
2019-03-15T22:59:41.120Z,84.51
2019-03-15T23:02:09.384Z,84.60
2019-03-15T23:04:37.646Z,84.39
2019-03-15T23:07:05.908Z,83.90
2019-03-15T23:09:34.164Z,84.33
2019-03-15T23:12:02.429Z,83.86
2019-03-15T23:14:30.683Z,84.23
2019-03-15T23:20:44.055Z,85.60
2019-03-15T23:23:23.241Z,87.39
2019-03-15T23:25:42.296Z,88.46
2019-03-15T23:30:57.859Z,95.41
2019-03-15T23:33:26.107Z,98.63
2019-03-15T23:35:54.594Z,99.76
2019-03-15T23:38:22.847Z,100.00
2019-03-15T23:40:51.105Z,100.00
2019-03-15T23:43:19.443Z,100.00
2019-03-15T23:45:47.715Z,100.00
2019-03-15T23:48:15.975Z,100.00
2019-03-15T23:50:44.231Z,99.71
2019-03-15T23:53:31.828Z,98.87
2019-03-15T23:56:00.081Z,97.98
2019-03-15T23:58:28.332Z,96.18
